Time;durP1;ratioP1;P1;durP2;ratioP2;P2;SDS_P1;SDS_P2;PMS_P1;PMS_P2;Temp;Humidity;BMP_temperature;BMP_pressure;BME280_temperature;BME280_humidity;BME280_pressure;Samples;Min_cycle;Max_cycle;Signal;HPM_P1;HPM_P2
2023/07/16 00:00:57;;;;;;;7.00;3.85;;;18.00;91.80;;;;;;5013280;28;20557;-90
2023/07/16 00:03:22;;;;;;;9.75;4.05;;;17.90;92.20;;;;;;5014625;28;20189;-91
2023/07/16 00:05:51;;;;;;;6.68;3.80;;;17.90;92.50;;;;;;5013758;28;20173;-91
2023/07/16 00:08:17;;;;;;;9.15;3.80;;;17.90;92.80;;;;;;5013917;28;20174;-91
2023/07/16 00:10:43;;;;;;;7.07;4.05;;;17.90;93.10;;;;;;5013902;28;20177;-91
2023/07/16 00:13:08;;;;;;;6.20;4.22;;;17.80;93.30;;;;;;5014462;28;20251;-91
2023/07/16 00:15:34;;;;;;;7.35;4.38;;;17.90;93.40;;;;;;5014050;28;20696;-91
2023/07/16 00:17:59;;;;;;;7.88;4.57;;;17.90;93.40;;;;;;5014143;28;20212;-91
2023/07/16 00:20:25;;;;;;;10.43;4.40;;;17.80;93.30;;;;;;5014384;28;20313;-92
2023/07/16 00:22:51;;;;;;;12.45;4.63;;;17.80;93.30;;;;;;5014173;28;20170;-92
2023/07/16 00:25:17;;;;;;;7.78;4.35;;;17.80;93.30;;;;;;5014311;28;20201;-92
2023/07/16 00:27:42;;;;;;;8.60;4.13;;;17.80;93.30;;;;;;5016558;28;20680;-91
2023/07/16 00:30:08;;;;;;;7.68;3.97;;;17.90;93.30;;;;;;5015630;28;20177;-92
2023/07/16 00:32:34;;;;;;;4.75;4.05;;;17.90;93.20;;;;;;5014743;28;20246;-92
2023/07/16 00:35:01;;;;;;;8.45;4.35;;;18.00;93.10;;;;;;5015229;28;20708;-91
2023/07/16 00:37:26;;;;;;;6.35;4.03;;;17.90;93.10;;;;;;5013617;28;20555;-91
2023/07/16 00:39:52;;;;;;;5.22;4.38;;;18.00;93.00;;;;;;5013707;28;20177;-91
2023/07/16 00:42:18;;;;;;;10.25;4.72;;;17.90;93.00;;;;;;5013318;28;20228;-91
2023/07/16 00:44:43;;;;;;;5.90;4.35;;;17.90;92.90;;;;;;5013262;28;20727;-91
2023/07/16 00:47:09;;;;;;;6.57;3.97;;;17.90;92.90;;;;;;5013634;28;20181;-90
2023/07/16 00:49:35;;;;;;;9.68;4.68;;;17.90;92.90;;;;;;5013040;28;20185;-90
2023/07/16 00:52:02;;;;;;;6.35;4.38;;;17.80;92.90;;;;;;5013168;28;20251;-91
2023/07/16 00:54:30;;;;;;;10.27;4.30;;;17.70;92.80;;;;;;5012967;28;20213;-91
2023/07/16 00:56:56;;;;;;;8.40;3.83;;;17.70;92.70;;;;;;5013050;28;20182;-91
2023/07/16 00:59:22;;;;;;;6.25;4.25;;;17.70;92.60;;;;;;5012922;28;20188;-91
2023/07/16 01:01:47;;;;;;;5.38;3.75;;;17.70;92.60;;;;;;5013498;28;20594;-91
2023/07/16 01:04:13;;;;;;;4.55;3.53;;;17.70;92.70;;;;;;5012944;28;20624;-91
2023/07/16 01:06:44;;;;;;;17.73;4.38;;;17.70;92.80;;;;;;5013655;28;20648;-91
2023/07/16 01:09:20;;;;;;;7.22;4.25;;;17.70;92.80;;;;;;5013865;28;20161;-91
2023/07/16 01:11:47;;;;;;;14.30;6.93;;;17.70;92.80;;;;;;5013248;28;20177;-91
2023/07/16 01:14:15;;;;;;;7.65;4.32;;;17.70;92.80;;;;;;5013245;28;20286;-90
2023/07/16 01:16:42;;;;;;;6.18;4.40;;;17.70;92.60;;;;;;5012868;28;20173;-90
2023/07/16 01:19:08;;;;;;;8.20;4.10;;;17.70;92.50;;;;;;5012909;28;20184;-92
2023/07/16 01:22:01;;;;;;;6.63;4.40;;;17.80;92.40;;;;;;5012933;28;20173;-90
2023/07/16 01:24:55;;;;;;;6.57;4.40;;;17.90;92.10;;;;;;5015365;28;20201;-92
2023/07/16 01:27:39;;;;;;;5.72;4.00;;;17.80;91.80;;;;;;5014496;28;20184;-93
2023/07/16 01:30:11;;;;;;;5.78;3.80;;;17.80;91.70;;;;;;5013343;28;20177;-91
2023/07/16 01:32:37;;;;;;;9.73;4.55;;;17.80;91.60;;;;;;5012465;28;20176;-91
2023/07/16 01:35:05;;;;;;;5.20;4.00;;;17.80;91.60;;;;;;5013022;28;20197;-91
2023/07/16 01:37:31;;;;;;;9.57;4.57;;;17.80;91.60;;;;;;5012448;28;20173;-91
2023/07/16 01:39:57;;;;;;;5.65;4.10;;;17.80;91.60;;;;;;5012328;28;20178;-91
2023/07/16 01:42:23;;;;;;;9.90;4.43;;;17.70;91.60;;;;;;5012269;28;20235;-91
2023/07/16 01:44:49;;;;;;;5.30;4.28;;;17.80;91.70;;;;;;5012269;28;20193;-91
2023/07/16 01:47:35;;;;;;;7.40;4.28;;;17.80;91.60;;;;;;5012254;28;20177;-91
2023/07/16 01:50:00;;;;;;;9.27;4.93;;;17.70;91.70;;;;;;5012848;28;20220;-90
2023/07/16 01:52:26;;;;;;;8.68;4.10;;;17.80;91.70;;;;;;5012165;28;20664;-90
2023/07/16 01:54:52;;;;;;;9.18;4.97;;;17.80;91.70;;;;;;5011944;28;20205;-91
2023/07/16 01:57:17;;;;;;;8.98;4.47;;;17.80;91.70;;;;;;5012151;28;20208;-91
2023/07/16 01:59:43;;;;;;;11.95;4.68;;;17.70;91.60;;;;;;5012531;28;20165;-91
2023/07/16 02:02:08;;;;;;;7.00;4.70;;;17.70;91.70;;;;;;5012128;28;20717;-90
2023/07/16 02:04:34;;;;;;;8.95;4.20;;;17.70;91.60;;;;;;5012137;28;20255;-91
2023/07/16 02:06:59;;;;;;;5.53;4.00;;;17.70;91.60;;;;;;5013129;28;20187;-90
2023/07/16 02:09:25;;;;;;;8.80;4.30;;;17.60;91.40;;;;;;5012188;28;20183;-91
2023/07/16 02:11:51;;;;;;;8.18;4.32;;;17.70;91.40;;;;;;5012022;28;20188;-91
2023/07/16 02:14:16;;;;;;;9.23;5.63;;;17.60;91.30;;;;;;5012090;28;20209;-90
2023/07/16 02:16:42;;;;;;;10.82;4.72;;;17.60;91.40;;;;;;5012364;28;20196;-91
2023/07/16 02:19:08;;;;;;;14.15;4.88;;;17.50;91.60;;;;;;5011850;28;20551;-91
2023/07/16 02:21:33;;;;;;;12.57;4.75;;;17.50;91.60;;;;;;5011836;28;20548;-90
2023/07/16 02:23:59;;;;;;;8.80;4.57;;;17.50;91.70;;;;;;5014915;28;20236;-91
2023/07/16 02:26:25;;;;;;;9.75;4.50;;;17.30;91.70;;;;;;5015990;28;20184;-90
2023/07/16 02:28:51;;;;;;;13.90;4.43;;;17.30;91.70;;;;;;5015826;28;20192;-90
2023/07/16 02:31:16;;;;;;;7.85;4.35;;;17.30;91.70;;;;;;5015659;28;20178;-90
2023/07/16 02:33:42;;;;;;;9.00;4.15;;;17.30;91.70;;;;;;5015480;28;20197;-91
2023/07/16 02:36:07;;;;;;;10.05;4.13;;;17.40;91.80;;;;;;5015712;28;20215;-90
2023/07/16 02:38:33;;;;;;;11.32;4.15;;;17.30;91.60;;;;;;5015562;28;20223;-90
2023/07/16 02:40:58;;;;;;;8.27;3.97;;;17.30;91.70;;;;;;5015588;28;20174;-90
2023/07/16 02:43:24;;;;;;;5.95;4.10;;;17.20;92.00;;;;;;5015490;28;20204;-90
2023/07/16 02:45:50;;;;;;;9.35;4.18;;;17.20;92.00;;;;;;5015485;28;20174;-90
2023/07/16 02:48:15;;;;;;;10.80;4.35;;;17.20;92.00;;;;;;5015394;28;20179;-90
2023/07/16 02:50:41;;;;;;;11.40;4.20;;;17.20;91.60;;;;;;5015404;28;20177;-90
2023/07/16 02:53:07;;;;;;;7.55;4.57;;;17.30;91.50;;;;;;5015621;28;20185;-91
2023/07/16 02:55:34;;;;;;;14.50;4.15;;;17.30;91.20;;;;;;5015111;28;20201;-90
2023/07/16 02:58:04;;;;;;;14.23;4.63;;;17.30;90.90;;;;;;5015259;28;20174;-90
2023/07/16 03:00:32;;;;;;;9.02;4.57;;;17.30;90.90;;;;;;5015114;28;20185;-90
2023/07/16 03:02:58;;;;;;;15.35;4.90;;;17.20;90.80;;;;;;5015162;28;20170;-91
2023/07/16 03:05:25;;;;;;;7.88;4.93;;;17.20;90.60;;;;;;5015629;28;20644;-90
2023/07/16 03:07:51;;;;;;;8.27;4.97;;;17.20;90.60;;;;;;5015417;28;20177;-90
2023/07/16 03:10:16;;;;;;;11.68;5.03;;;17.20;90.50;;;;;;5015090;28;20199;-90
2023/07/16 03:12:42;;;;;;;7.45;5.03;;;17.20;90.50;;;;;;5014959;28;20188;-91
2023/07/16 03:15:08;;;;;;;13.95;4.57;;;17.20;90.40;;;;;;5014902;28;20205;-91
2023/07/16 03:17:34;;;;;;;10.23;5.18;;;17.20;90.50;;;;;;5014877;28;20178;-91
2023/07/16 03:19:59;;;;;;;8.32;4.68;;;17.20;90.60;;;;;;5015685;28;20256;-91
2023/07/16 03:22:25;;;;;;;9.32;4.70;;;17.20;90.60;;;;;;5014808;28;20260;-90
2023/07/16 03:24:51;;;;;;;12.95;4.78;;;17.30;90.70;;;;;;5014715;28;20208;-91
2023/07/16 03:27:16;;;;;;;14.13;5.25;;;17.20;90.80;;;;;;5014727;28;20264;-91
2023/07/16 03:29:42;;;;;;;10.88;5.05;;;17.20;90.90;;;;;;5014699;28;20232;-91
2023/07/16 03:32:08;;;;;;;14.50;5.20;;;17.20;90.90;;;;;;5015525;28;20177;-91
2023/07/16 03:34:33;;;;;;;8.32;5.50;;;17.20;90.90;;;;;;5014193;28;20276;-91
2023/07/16 03:36:59;;;;;;;16.35;5.32;;;17.10;91.00;;;;;;5014581;28;20200;-90
2023/07/16 03:39:24;;;;;;;15.40;4.85;;;17.20;91.20;;;;;;5014788;28;20170;-90
2023/07/16 03:41:50;;;;;;;12.07;5.03;;;17.10;91.30;;;;;;5014432;28;20649;-91
2023/07/16 03:44:15;;;;;;;15.35;5.25;;;17.10;91.30;;;;;;5014331;28;20551;-91
2023/07/16 03:46:41;;;;;;;12.38;5.25;;;17.10;91.50;;;;;;5014292;28;20196;-90
2023/07/16 03:49:07;;;;;;;9.30;5.15;;;17.00;91.70;;;;;;5014306;28;20177;-91
2023/07/16 03:51:33;;;;;;;10.73;5.10;;;17.00;92.00;;;;;;5014174;28;20787;-91
2023/07/16 03:53:58;;;;;;;10.75;5.10;;;17.00;92.20;;;;;;5014057;28;20300;-91
2023/07/16 03:56:24;;;;;;;14.18;5.50;;;16.90;92.40;;;;;;5014226;28;20641;-87
2023/07/16 03:58:49;;;;;;;7.43;4.93;;;17.00;92.50;;;;;;5015305;28;20174;-91
2023/07/16 04:01:15;;;;;;;14.15;5.10;;;17.00;92.70;;;;;;5014050;28;20260;-91
2023/07/16 04:03:40;;;;;;;12.32;5.65;;;17.00;92.80;;;;;;5015002;28;20252;-90
2023/07/16 04:06:11;;;;;;;14.82;5.07;;;17.00;92.80;;;;;;5014014;28;20200;-90
2023/07/16 04:08:37;;;;;;;11.50;5.28;;;17.10;92.90;;;;;;5014498;28;20193;-91
2023/07/16 04:11:04;;;;;;;14.65;5.20;;;17.10;92.80;;;;;;5013836;28;20216;-91
2023/07/16 04:13:29;;;;;;;11.65;4.90;;;17.20;92.70;;;;;;5013550;28;20299;-91
2023/07/16 04:15:57;;;;;;;8.23;5.50;;;17.30;92.60;;;;;;5013868;28;20765;-90
2023/07/16 04:18:23;;;;;;;11.25;4.93;;;17.30;92.50;;;;;;5013824;28;20212;-90
2023/07/16 04:20:48;;;;;;;9.63;4.93;;;17.30;92.30;;;;;;5013586;28;20173;-91
2023/07/16 04:23:14;;;;;;;9.32;4.63;;;17.30;92.20;;;;;;5013697;28;20550;-90
2023/07/16 04:25:39;;;;;;;9.38;4.72;;;17.30;92.10;;;;;;5013642;28;20192;-91
2023/07/16 04:28:05;;;;;;;13.75;5.70;;;17.30;92.00;;;;;;5013736;28;20184;-91
2023/07/16 04:30:30;;;;;;;11.10;5.13;;;17.30;92.00;;;;;;5013589;28;20617;-91
2023/07/16 04:32:56;;;;;;;13.98;4.85;;;17.30;91.90;;;;;;5013485;28;20173;-91
2023/07/16 04:35:22;;;;;;;8.18;4.75;;;17.30;92.00;;;;;;5013542;28;20200;-90
2023/07/16 04:37:47;;;;;;;9.43;4.95;;;17.30;91.90;;;;;;5013524;28;20185;-91
2023/07/16 04:40:13;;;;;;;6.75;4.50;;;17.30;91.80;;;;;;5013382;28;20200;-91
2023/07/16 04:42:38;;;;;;;13.30;4.70;;;17.30;91.80;;;;;;5013320;28;20208;-90
2023/07/16 04:45:05;;;;;;;15.48;5.60;;;17.30;91.80;;;;;;5012659;28;20201;-91
2023/07/16 04:47:31;;;;;;;9.45;5.13;;;17.40;91.70;;;;;;5013182;28;20181;-91
2023/07/16 04:49:58;;;;;;;11.60;5.40;;;17.30;91.70;;;;;;5013223;28;20531;-91
2023/07/16 04:52:23;;;;;;;7.80;5.05;;;17.30;91.60;;;;;;5012915;28;20304;-91
2023/07/16 04:54:49;;;;;;;11.20;4.70;;;17.30;91.50;;;;;;5013077;28;20296;-91
2023/07/16 04:57:14;;;;;;;13.10;5.15;;;17.30;91.50;;;;;;5013067;28;20170;-91
2023/07/16 04:59:40;;;;;;;12.95;5.00;;;17.30;91.50;;;;;;5013019;28;20249;-91
2023/07/16 05:02:06;;;;;;;10.95;4.93;;;17.30;91.50;;;;;;5012921;28;20637;-90
2023/07/16 05:04:33;;;;;;;17.33;5.00;;;17.40;91.40;;;;;;5013169;28;20197;-91
2023/07/16 05:06:58;;;;;;;14.10;4.82;;;17.40;91.40;;;;;;5012928;28;20177;-91
2023/07/16 05:09:24;;;;;;;10.88;4.80;;;17.40;91.60;;;;;;5012686;28;20184;-91
2023/07/16 05:11:49;;;;;;;12.85;4.55;;;17.50;91.70;;;;;;5012908;28;20181;-91
2023/07/16 05:14:15;;;;;;;9.23;5.35;;;17.60;91.60;;;;;;5012816;28;20204;-91
2023/07/16 05:16:40;;;;;;;7.72;4.85;;;17.80;91.50;;;;;;5012909;28;20669;-90
2023/07/16 05:19:06;;;;;;;9.82;4.78;;;17.80;91.60;;;;;;5012964;28;20200;-90
2023/07/16 05:21:31;;;;;;;11.23;5.13;;;17.80;91.00;;;;;;5013593;28;20219;-91
2023/07/16 05:23:57;;;;;;;8.70;5.15;;;17.70;90.40;;;;;;5012667;28;20220;-91
2023/07/16 05:26:22;;;;;;;8.18;4.70;;;17.70;89.90;;;;;;5012636;28;20260;-91
2023/07/16 05:28:48;;;;;;;10.57;4.57;;;17.70;89.70;;;;;;5012600;28;20268;-91
2023/07/16 05:31:13;;;;;;;7.80;4.60;;;17.80;89.60;;;;;;5012786;28;20617;-91
2023/07/16 05:33:39;;;;;;;8.10;4.90;;;17.90;89.40;;;;;;5012414;28;20201;-90
2023/07/16 05:36:04;;;;;;;10.88;4.80;;;18.00;88.60;;;;;;5013007;28;20656;-91
2023/07/16 05:38:30;;;;;;;8.90;4.88;;;18.10;89.00;;;;;;5012778;28;20173;-91
2023/07/16 05:41:03;;;;;;;8.50;4.65;;;18.10;88.60;;;;;;5012717;28;20196;-91
2023/07/16 05:43:29;;;;;;;8.95;5.30;;;18.20;88.40;;;;;;5012910;28;20228;-91
2023/07/16 05:45:54;;;;;;;6.18;5.03;;;18.30;88.50;;;;;;5012622;28;20197;-91
2023/07/16 05:48:20;;;;;;;6.78;5.40;;;18.30;88.20;;;;;;5012994;28;20538;-91
2023/07/16 05:50:45;;;;;;;11.77;5.45;;;18.30;86.80;;;;;;5012725;28;20177;-91
2023/07/16 05:53:13;;;;;;;8.57;6.13;;;18.40;86.90;;;;;;5012863;28;20731;-91
2023/07/16 05:55:39;;;;;;;13.80;6.75;;;18.40;86.00;;;;;;5012973;28;20197;-90
2023/07/16 05:58:05;;;;;;;10.13;5.78;;;18.40;85.00;;;;;;5016105;28;20177;-91
2023/07/16 06:00:31;;;;;;;13.32;6.40;;;18.50;85.50;;;;;;5017251;28;20200;-91
2023/07/16 06:02:56;;;;;;;15.25;7.45;;;18.50;85.20;;;;;;5016513;28;20664;-91
2023/07/16 06:05:22;;;;;;;9.48;6.20;;;18.70;83.50;;;;;;5016543;28;20177;-90
2023/07/16 06:07:48;;;;;;;12.43;6.82;;;18.70;83.90;;;;;;5016922;28;20180;-91
2023/07/16 06:10:13;;;;;;;15.82;7.65;;;18.70;83.40;;;;;;5018005;28;20204;-91
2023/07/16 06:12:39;;;;;;;12.73;7.80;;;18.80;83.20;;;;;;5017421;28;20197;-91
2023/07/16 06:15:05;;;;;;;12.13;8.68;;;18.80;82.70;;;;;;5016504;28;20205;-90
2023/07/16 06:17:30;;;;;;;14.88;7.95;;;18.80;81.70;;;;;;5016464;28;20209;-91
2023/07/16 06:19:57;;;;;;;13.75;9.07;;;18.80;82.30;;;;;;5016246;28;20264;-91
2023/07/16 06:22:23;;;;;;;18.08;9.43;;;18.80;80.40;;;;;;5016262;28;20170;-91
2023/07/16 06:24:48;;;;;;;10.13;8.18;;;18.80;79.90;;;;;;5016218;28;20643;-90
2023/07/16 06:27:14;;;;;;;10.77;7.28;;;18.90;79.10;;;;;;5017001;28;20700;-90
2023/07/16 06:29:39;;;;;;;11.30;7.07;;;18.90;80.20;;;;;;5016111;28;20200;-91
2023/07/16 06:32:06;;;;;;;10.55;7.63;;;19.00;80.10;;;;;;5016331;28;20181;-91
2023/07/16 06:34:31;;;;;;;12.23;9.40;;;19.00;79.60;;;;;;5015738;28;20205;-90
2023/07/16 06:36:57;;;;;;;13.93;7.88;;;19.10;79.30;;;;;;5015770;28;20181;-90
2023/07/16 06:39:22;;;;;;;14.35;8.88;;;19.10;79.40;;;;;;5015680;28;20177;-91
2023/07/16 06:41:48;;;;;;;10.13;9.13;;;19.10;79.50;;;;;;5016015;28;20239;-87
2023/07/16 06:44:13;;;;;;;10.75;9.75;;;19.20;78.40;;;;;;5017472;28;20193;-91
2023/07/16 06:46:39;;;;;;;16.00;10.23;;;19.20;77.70;;;;;;5019001;28;20226;-92
2023/07/16 06:49:06;;;;;;;15.27;9.95;;;19.20;78.00;;;;;;5019001;28;20177;-91
2023/07/16 06:51:32;;;;;;;14.77;10.45;;;19.20;77.80;;;;;;5016499;28;20181;-92
2023/07/16 06:53:59;;;;;;;14.20;10.52;;;19.30;77.30;;;;;;5017295;28;20569;-93
2023/07/16 06:56:25;;;;;;;11.02;9.90;;;19.30;77.80;;;;;;5018018;28;20527;-91
2023/07/16 06:58:50;;;;;;;12.73;11.43;;;19.30;77.00;;;;;;5017340;28;20170;-90
2023/07/16 07:01:16;;;;;;;20.50;12.90;;;19.30;77.00;;;;;;5015234;28;20178;-90
2023/07/16 07:03:42;;;;;;;13.23;11.68;;;19.40;75.60;;;;;;5015176;28;20752;-90
2023/07/16 07:06:10;;;;;;;15.57;9.68;;;19.40;75.60;;;;;;5016008;28;20181;-91
2023/07/16 07:08:36;;;;;;;14.60;10.90;;;19.60;77.60;;;;;;5016839;28;20595;-90
2023/07/16 07:11:01;;;;;;;15.90;11.80;;;19.70;77.10;;;;;;5017002;28;20213;-90
2023/07/16 07:13:29;;;;;;;12.27;11.10;;;19.60;76.10;;;;;;5016545;28;20193;-90
2023/07/16 07:15:55;;;;;;;12.80;11.55;;;19.70;77.20;;;;;;5017925;28;20204;-90
2023/07/16 07:18:20;;;;;;;16.27;12.75;;;19.70;75.10;;;;;;5017421;28;20177;-90
2023/07/16 07:20:47;;;;;;;16.00;12.57;;;19.80;75.90;;;;;;5017388;28;20645;-91
2023/07/16 07:23:13;;;;;;;13.35;12.05;;;19.80;76.40;;;;;;5017044;28;20193;-91
2023/07/16 07:25:38;;;;;;;17.42;11.43;;;19.80;74.80;;;;;;5016744;28;20533;-90
2023/07/16 07:28:04;;;;;;;15.48;11.60;;;19.70;74.50;;;;;;5015519;28;20187;-90
2023/07/16 07:30:30;;;;;;;17.10;13.93;;;19.80;74.50;;;;;;5016814;28;20205;-90
2023/07/16 07:32:55;;;;;;;16.08;12.02;;;19.80;74.90;;;;;;5016129;28;20173;-90
2023/07/16 07:35:21;;;;;;;13.88;12.48;;;19.90;74.60;;;;;;5015222;28;20205;-89
2023/07/16 07:37:46;;;;;;;15.40;12.48;;;20.00;73.50;;;;;;5016406;28;20550;-90
2023/07/16 07:40:12;;;;;;;16.77;12.50;;;19.80;74.10;;;;;;5015526;28;20649;-90
2023/07/16 07:42:38;;;;;;;12.25;11.07;;;19.90;73.60;;;;;;5015332;28;20181;-90
2023/07/16 07:45:04;;;;;;;21.15;11.90;;;20.30;75.30;;;;;;5016153;28;20201;-89
2023/07/16 07:47:29;;;;;;;13.18;11.57;;;20.30;74.20;;;;;;5016195;28;20243;-90
2023/07/16 07:49:55;;;;;;;18.25;11.60;;;20.30;73.00;;;;;;5016023;28;20700;-90
2023/07/16 07:52:21;;;;;;;14.68;12.48;;;20.20;72.50;;;;;;5014877;28;20201;-90
2023/07/16 07:54:46;;;;;;;20.33;12.75;;;20.10;72.30;;;;;;5016145;28;20240;-90
2023/07/16 07:57:12;;;;;;;16.25;12.10;;;20.20;70.60;;;;;;5016991;28;20173;-90
2023/07/16 07:59:37;;;;;;;15.55;12.57;;;20.30;73.00;;;;;;5015802;28;20174;-88
2023/07/16 08:02:03;;;;;;;12.45;11.15;;;20.20;72.00;;;;;;5014742;28;20263;-87
2023/07/16 08:04:30;;;;;;;12.75;11.57;;;20.30;70.50;;;;;;5013961;28;20254;-88
2023/07/16 08:06:56;;;;;;;15.05;11.43;;;20.20;72.80;;;;;;5014473;28;20268;-89
2023/07/16 08:09:21;;;;;;;15.48;11.82;;;20.20;72.00;;;;;;5014631;28;20224;-90
2023/07/16 08:11:47;;;;;;;11.73;10.52;;;20.00;72.90;;;;;;5016264;28;20542;-90
2023/07/16 08:14:12;;;;;;;11.10;10.15;;;20.20;74.40;;;;;;5014623;28;20687;-90
2023/07/16 08:16:38;;;;;;;16.90;10.75;;;20.30;74.00;;;;;;5015726;28;20177;-90
2023/07/16 08:19:03;;;;;;;13.70;12.27;;;20.30;73.90;;;;;;5015544;28;20173;-89
2023/07/16 08:21:29;;;;;;;13.15;11.77;;;20.60;72.30;;;;;;5013188;28;20526;-89
2023/07/16 08:23:54;;;;;;;13.00;11.73;;;20.70;70.90;;;;;;5014237;28;20216;-89
2023/07/16 08:26:20;;;;;;;13.10;11.82;;;20.50;70.60;;;;;;5014144;28;20223;-89
2023/07/16 08:28:46;;;;;;;13.30;11.90;;;20.60;72.50;;;;;;5015598;28;20177;-90
2023/07/16 08:31:12;;;;;;;12.90;11.88;;;20.70;71.80;;;;;;5015480;28;20177;-90
2023/07/16 08:33:38;;;;;;;15.27;13.00;;;20.50;72.10;;;;;;5014222;28;20208;-90
2023/07/16 08:36:04;;;;;;;14.98;13.65;;;20.70;70.60;;;;;;5014593;28;20181;-90
2023/07/16 08:38:29;;;;;;;15.25;13.63;;;20.80;66.80;;;;;;5014439;28;20708;-89
2023/07/16 08:40:55;;;;;;;13.32;12.40;;;20.90;68.90;;;;;;5014068;28;20179;-90
2023/07/16 08:43:22;;;;;;;14.23;13.10;;;21.00;67.20;;;;;;5015127;28;20568;-89
2023/07/16 08:45:49;;;;;;;15.23;13.68;;;20.70;68.30;;;;;;5014154;28;20664;-89
2023/07/16 08:48:18;;;;;;;14.70;13.52;;;20.70;67.00;;;;;;5013821;28;20312;-89
2023/07/16 08:50:47;;;;;;;15.02;13.77;;;20.70;67.10;;;;;;5014176;28;20311;-90
2023/07/16 08:53:15;;;;;;;13.95;12.80;;;20.80;68.90;;;;;;5014056;28;20213;-89
2023/07/16 08:55:42;;;;;;;13.80;12.65;;;21.00;68.50;;;;;;5013621;28;20201;-89
2023/07/16 08:58:07;;;;;;;14.50;13.23;;;20.70;69.50;;;;;;5013660;28;20177;-90
2023/07/16 09:00:34;;;;;;;15.63;13.43;;;20.80;70.10;;;;;;5013572;28;20224;-89
2023/07/16 09:03:00;;;;;;;17.10;13.07;;;21.00;69.20;;;;;;5013494;28;20572;-90
2023/07/16 09:05:25;;;;;;;14.68;13.20;;;20.70;69.90;;;;;;5014509;28;20173;-89
2023/07/16 09:07:51;;;;;;;13.40;12.20;;;20.70;72.20;;;;;;5014115;28;20185;-89
2023/07/16 09:10:18;;;;;;;13.90;12.57;;;21.00;70.70;;;;;;5013741;28;20208;-89
2023/07/16 09:12:45;;;;;;;13.27;12.15;;;21.00;71.40;;;;;;5013479;28;20200;-89
2023/07/16 09:15:12;;;;;;;14.57;13.18;;;21.20;70.20;;;;;;5013162;28;20197;-89
2023/07/16 09:17:38;;;;;;;14.32;13.13;;;21.50;70.40;;;;;;5013470;28;20181;-90
2023/07/16 09:20:05;;;;;;;15.05;13.82;;;21.70;67.90;;;;;;5013591;28;20552;-89
2023/07/16 09:22:31;;;;;;;14.75;13.30;;;21.70;65.40;;;;;;5013004;28;20265;-89
2023/07/16 09:24:57;;;;;;;14.65;13.25;;;21.40;68.00;;;;;;5013413;28;20231;-90
2023/07/16 09:27:28;;;;;;;16.17;14.88;;;21.80;68.10;;;;;;5015370;28;20551;-89
2023/07/16 09:29:54;;;;;;;15.25;14.05;;;21.60;64.30;;;;;;5014178;28;20188;-89
2023/07/16 09:32:19;;;;;;;16.05;14.85;;;21.80;68.00;;;;;;5012837;28;20664;-90
2023/07/16 09:34:48;;;;;;;15.85;14.65;;;21.90;65.50;;;;;;5014200;28;20220;-89
2023/07/16 09:37:14;;;;;;;16.27;14.93;;;22.10;66.60;;;;;;5012997;28;20173;-89
2023/07/16 09:39:41;;;;;;;18.00;16.30;;;22.20;64.60;;;;;;5013024;28;20197;-89
2023/07/16 09:42:07;;;;;;;17.52;15.75;;;21.80;64.30;;;;;;5013237;28;20239;-89
2023/07/16 09:44:34;;;;;;;17.45;15.95;;;21.80;66.30;;;;;;5012980;28;20688;-89
2023/07/16 09:46:59;;;;;;;17.63;16.17;;;21.60;64.70;;;;;;5014109;28;20220;-87
2023/07/16 09:49:28;;;;;;;18.30;16.90;;;21.30;65.00;;;;;;5014061;28;20212;-90
2023/07/16 09:51:56;;;;;;;17.88;16.60;;;21.20;63.40;;;;;;5013658;28;20204;-88
2023/07/16 09:54:24;;;;;;;18.38;16.77;;;21.00;63.80;;;;;;5012851;28;20590;-88
2023/07/16 09:56:58;;;;;;;18.10;15.57;;;21.00;65.70;;;;;;5012602;28;20181;-88
2023/07/16 09:59:27;;;;;;;19.80;15.48;;;21.50;66.10;;;;;;5012474;28;20248;-88
2023/07/16 10:01:53;;;;;;;16.73;15.43;;;21.30;67.90;;;;;;5013658;28;20169;-89
2023/07/16 10:04:19;;;;;;;18.25;16.45;;;21.10;68.20;;;;;;5012670;28;20555;-89
2023/07/16 10:06:58;;;;;;;17.15;15.75;;;21.20;65.60;;;;;;5012643;28;20570;-89
2023/07/16 10:09:33;;;;;;;17.15;15.68;;;21.30;65.10;;;;;;5013344;28;20173;-90
2023/07/16 10:12:14;;;;;;;16.13;14.90;;;21.00;64.60;;;;;;5014224;28;20180;-90
2023/07/16 10:14:49;;;;;;;17.63;16.13;;;21.20;65.30;;;;;;5012821;28;20209;-90
2023/07/16 10:17:29;;;;;;;17.88;16.38;;;20.90;64.00;;;;;;5012743;28;20177;-90
2023/07/16 10:20:07;;;;;;;17.55;15.77;;;20.80;64.70;;;;;;5013872;28;20169;-88
2023/07/16 10:22:41;;;;;;;17.08;15.80;;;20.80;64.60;;;;;;5013390;28;20197;-90
2023/07/16 10:25:23;;;;;;;18.88;16.38;;;20.90;63.00;;;;;;5012626;28;20202;-88
2023/07/16 10:27:51;;;;;;;18.45;16.75;;;21.30;63.90;;;;;;5014122;28;20161;-89
2023/07/16 10:30:17;;;;;;;18.50;16.65;;;21.30;64.00;;;;;;5013589;28;20182;-89
2023/07/16 10:32:43;;;;;;;18.25;15.98;;;20.90;65.00;;;;;;5013556;28;20264;-89
2023/07/16 10:35:10;;;;;;;17.23;15.60;;;20.80;67.30;;;;;;5012581;28;20209;-89
2023/07/16 10:37:36;;;;;;;18.95;17.35;;;21.50;64.50;;;;;;5012775;28;20177;-89
2023/07/16 10:40:03;;;;;;;18.75;17.02;;;21.50;62.60;;;;;;5013730;28;20265;-89
2023/07/16 10:42:29;;;;;;;21.10;17.98;;;21.80;62.70;;;;;;5012812;28;20193;-89
2023/07/16 10:44:58;;;;;;;17.98;16.27;;;21.80;62.60;;;;;;5015385;28;20202;-86
2023/07/16 10:47:29;;;;;;;18.80;17.20;;;21.50;63.30;;;;;;5015567;28;20606;-86
2023/07/16 10:49:55;;;;;;;19.30;17.75;;;21.30;63.50;;;;;;5016439;28;20181;-87
2023/07/16 10:52:22;;;;;;;26.27;24.27;;;21.90;62.60;;;;;;5015868;28;20193;-88
2023/07/16 10:54:49;;;;;;;26.10;24.10;;;22.10;60.80;;;;;;5018317;28;20201;-89
2023/07/16 10:57:16;;;;;;;27.02;24.58;;;21.60;62.50;;;;;;5016887;28;20166;-89
2023/07/16 10:59:44;;;;;;;26.50;24.15;;;21.70;62.90;;;;;;5016967;28;20180;-89
2023/07/16 11:02:13;;;;;;;26.90;24.65;;;21.90;60.90;;;;;;5016030;28;20179;-88
2023/07/16 11:04:40;;;;;;;23.08;21.48;;;21.50;62.70;;;;;;5015471;28;20574;-88
2023/07/16 11:07:11;;;;;;;25.20;23.20;;;21.50;61.40;;;;;;5015462;28;20173;-89
2023/07/16 11:09:42;;;;;;;25.88;23.88;;;22.00;60.30;;;;;;5016057;28;20232;-88
2023/07/16 11:12:13;;;;;;;25.90;23.90;;;22.00;60.30;;;;;;5016218;28;20199;-90
2023/07/16 11:14:46;;;;;;;25.38;23.52;;;22.30;60.70;;;;;;5015540;28;20205;-88
2023/07/16 11:17:12;;;;;;;20.63;18.92;;;22.20;60.80;;;;;;5015414;28;20623;-88
2023/07/16 11:19:39;;;;;;;18.50;16.73;;;22.30;60.00;;;;;;5015317;28;20322;-89
2023/07/16 11:22:06;;;;;;;22.73;17.23;;;22.70;59.50;;;;;;5015149;28;20173;-88
2023/07/16 11:24:46;;;;;;;18.48;17.02;;;22.70;60.00;;;;;;5014929;28;20221;-88
2023/07/16 11:27:23;;;;;;;19.17;17.38;;;22.40;59.20;;;;;;5015869;28;20173;-88
2023/07/16 11:29:51;;;;;;;16.83;15.23;;;22.80;61.40;;;;;;5015222;28;20173;-88
2023/07/16 11:32:41;;;;;;;21.15;17.00;;;22.60;59.30;;;;;;5015024;28;20268;-88
2023/07/16 11:35:08;;;;;;;16.83;15.38;;;22.50;58.30;;;;;;5014892;28;20251;-88
2023/07/16 11:37:35;;;;;;;16.92;15.68;;;22.00;58.30;;;;;;5014876;28;20204;-88
2023/07/16 11:40:07;;;;;;;18.55;16.77;;;21.70;59.90;;;;;;5014837;28;20173;-88
2023/07/16 11:42:35;;;;;;;20.15;17.73;;;21.50;60.40;;;;;;5014686;28;20533;-88
2023/07/16 11:45:01;;;;;;;19.35;17.55;;;21.50;61.80;;;;;;5014776;28;20204;-88
2023/07/16 11:47:27;;;;;;;18.48;17.10;;;21.50;62.60;;;;;;5016145;28;20205;-88
2023/07/16 11:49:53;;;;;;;18.58;17.20;;;21.50;63.20;;;;;;5014608;28;20200;-88
2023/07/16 11:52:27;;;;;;;19.75;17.85;;;21.40;63.90;;;;;;5014386;28;20193;-88
2023/07/16 11:54:53;;;;;;;19.85;17.77;;;21.50;62.40;;;;;;5014413;28;20201;-89
2023/07/16 11:57:19;;;;;;;19.05;17.58;;;21.80;63.40;;;;;;5014761;28;20180;-89
2023/07/16 11:59:45;;;;;;;18.33;17.02;;;21.90;62.00;;;;;;5015469;28;20170;-88
2023/07/16 12:02:11;;;;;;;17.77;16.17;;;22.30;62.50;;;;;;5015678;28;20251;-88
2023/07/16 12:04:37;;;;;;;16.13;15.02;;;22.60;59.80;;;;;;5014214;28;20197;-88
2023/07/16 12:07:02;;;;;;;17.40;15.93;;;22.40;58.40;;;;;;5014502;28;20628;-89
2023/07/16 12:09:28;;;;;;;16.88;15.30;;;22.20;59.20;;;;;;5014418;28;20185;-88
2023/07/16 12:11:54;;;;;;;17.27;15.73;;;22.10;59.80;;;;;;5014625;28;20231;-87
2023/07/16 12:14:19;;;;;;;17.70;16.00;;;21.80;59.80;;;;;;5014444;28;20205;-89
2023/07/16 12:16:45;;;;;;;18.20;16.48;;;21.70;61.20;;;;;;5014427;28;20633;-88
2023/07/16 12:19:10;;;;;;;17.48;16.17;;;21.70;61.40;;;;;;5013922;28;20170;-87
2023/07/16 12:21:36;;;;;;;17.83;16.15;;;22.00;61.30;;;;;;5015060;28;20170;-87
2023/07/16 12:24:02;;;;;;;17.83;16.23;;;22.70;59.30;;;;;;5014862;28;20201;-87
2023/07/16 12:26:28;;;;;;;17.45;16.15;;;22.10;60.30;;;;;;5014965;28;20646;-87
2023/07/16 12:28:54;;;;;;;17.65;16.23;;;21.90;61.00;;;;;;5014896;28;20184;-87
2023/07/16 12:31:22;;;;;;;18.23;16.45;;;21.70;61.30;;;;;;5013587;28;20181;-89
2023/07/16 12:33:48;;;;;;;18.55;16.67;;;21.70;61.20;;;;;;5013489;28;20228;-88